createdAt,value
2023-03-07T00:00:32.682Z,21.77
2023-03-07T00:03:00.690Z,22.40
2023-03-07T00:05:29.300Z,22.23
2023-03-07T00:07:58.472Z,20.77
2023-03-07T00:10:26.974Z,20.95
2023-03-07T00:12:54.959Z,23.58
2023-03-07T00:15:23.704Z,23.23
2023-03-07T00:17:52.292Z,20.70
2023-03-07T00:20:20.795Z,22.90
2023-03-07T00:22:49.444Z,23.25
2023-03-07T00:25:17.367Z,23.42
2023-03-07T00:27:45.825Z,17.67
2023-03-07T00:30:13.967Z,19.05
2023-03-07T00:32:42.112Z,19.25
2023-03-07T00:35:10.363Z,19.02
2023-03-07T00:37:38.735Z,18.85
2023-03-07T00:40:09.455Z,17.10
2023-03-07T00:42:37.447Z,16.73
2023-03-07T00:45:06.454Z,16.83
2023-03-07T00:47:34.606Z,17.45
2023-03-07T00:50:04.394Z,16.90
2023-03-07T00:52:33.645Z,16.25
2023-03-07T00:55:02.286Z,16.52
2023-03-07T00:57:32.684Z,17.05
2023-03-07T01:00:00.844Z,16.00
2023-03-07T01:02:29.484Z,17.73
2023-03-07T01:04:57.486Z,17.90
2023-03-07T01:07:25.371Z,19.83
2023-03-07T01:09:54.202Z,19.98
2023-03-07T01:12:22.226Z,22.92
2023-03-07T01:14:51.429Z,23.35
2023-03-07T01:17:20.150Z,20.30
2023-03-07T01:19:48.033Z,22.55
2023-03-07T01:22:17.115Z,22.08
2023-03-07T01:24:46.151Z,21.90
2023-03-07T01:27:15.336Z,23.20
2023-03-07T01:29:43.424Z,26.75
2023-03-07T01:32:11.755Z,24.70
2023-03-07T01:34:40.515Z,24.02
2023-03-07T01:37:08.630Z,27.08
2023-03-07T01:39:36.794Z,26.35
2023-03-07T01:42:08.337Z,26.15
2023-03-07T01:45:27.596Z,24.33
2023-03-07T01:47:55.615Z,20.77
2023-03-07T01:50:23.940Z,18.88
2023-03-07T01:52:59.562Z,18.42
2023-03-07T01:55:32.030Z,14.35
2023-03-07T01:58:12.606Z,14.63
2023-03-07T02:00:43.458Z,16.52
2023-03-07T02:03:22.098Z,16.67
2023-03-07T02:05:53.767Z,18.70
2023-03-07T02:08:25.578Z,20.23
2023-03-07T02:10:55.037Z,20.17
2023-03-07T02:13:23.191Z,20.08
2023-03-07T02:15:52.171Z,19.13
2023-03-07T02:18:27.449Z,18.85
2023-03-07T02:21:14.503Z,19.85
2023-03-07T02:23:53.290Z,20.63
2023-03-07T02:26:31.000Z,17.48
2023-03-07T02:29:01.686Z,17.33
2023-03-07T02:31:31.658Z,16.17
2023-03-07T02:34:00.017Z,17.08
2023-03-07T02:36:33.664Z,19.17
2023-03-07T02:39:14.727Z,19.42
2023-03-07T02:41:43.545Z,19.67
2023-03-07T02:44:20.306Z,19.30
2023-03-07T02:46:49.263Z,20.30
2023-03-07T02:49:18.212Z,19.33
2023-03-07T02:51:46.241Z,17.55
2023-03-07T02:54:14.387Z,17.17
2023-03-07T02:56:42.619Z,18.00
2023-03-07T02:59:11.088Z,16.80
2023-03-07T03:01:39.203Z,16.85
2023-03-07T03:04:07.411Z,16.83
2023-03-07T03:06:36.703Z,18.05
2023-03-07T03:09:05.128Z,17.38
2023-03-07T03:11:33.832Z,17.13
2023-03-07T03:14:01.931Z,17.67
2023-03-07T03:16:30.978Z,17.48
2023-03-07T03:18:59.082Z,17.02
2023-03-07T03:21:27.639Z,18.38
2023-03-07T03:23:56.285Z,21.38
2023-03-07T03:26:25.002Z,19.33
2023-03-07T03:28:55.313Z,19.92
2023-03-07T03:31:24.976Z,19.25
2023-03-07T03:33:53.220Z,18.30
2023-03-07T03:36:25.732Z,18.58
2023-03-07T03:38:57.594Z,17.75
2023-03-07T03:41:27.173Z,17.98
2023-03-07T03:43:57.622Z,20.25
2023-03-07T03:46:27.107Z,22.20
2023-03-07T03:48:55.820Z,22.60
2023-03-07T03:51:27.154Z,21.67
2023-03-07T03:54:00.142Z,24.02
2023-03-07T03:56:29.772Z,19.27
2023-03-07T03:58:58.375Z,19.52
2023-03-07T04:01:28.554Z,18.58
2023-03-07T04:03:58.124Z,17.08
2023-03-07T04:06:28.384Z,16.85
2023-03-07T04:08:57.669Z,17.63
2023-03-07T04:11:26.242Z,17.33
2023-03-07T04:13:54.402Z,18.67
2023-03-07T04:16:23.755Z,16.50
2023-03-07T04:18:52.503Z,16.10
2023-03-07T04:21:21.782Z,14.90
2023-03-07T04:23:55.546Z,13.73
2023-03-07T04:26:25.358Z,13.38
2023-03-07T04:28:53.916Z,14.35
2023-03-07T04:31:34.195Z,13.52
2023-03-07T04:34:04.678Z,13.75
2023-03-07T04:36:33.968Z,14.05
2023-03-07T04:39:04.442Z,14.32
2023-03-07T04:41:33.671Z,13.23
2023-03-07T04:44:15.542Z,14.88
2023-03-07T04:46:44.328Z,14.48
2023-03-07T04:49:12.567Z,15.23
2023-03-07T04:51:43.959Z,14.45
2023-03-07T04:54:13.194Z,18.30
2023-03-07T04:56:42.459Z,19.73
2023-03-07T04:59:12.394Z,21.05
2023-03-07T05:01:40.855Z,22.27
2023-03-07T05:04:09.106Z,20.88
2023-03-07T05:06:38.445Z,23.42
2023-03-07T05:09:07.361Z,20.77
2023-03-07T05:11:35.454Z,21.67
2023-03-07T05:14:04.274Z,20.52
2023-03-07T05:16:33.732Z,20.50
2023-03-07T05:19:02.332Z,20.10
2023-03-07T05:21:32.261Z,19.85
2023-03-07T05:24:00.672Z,18.83
2023-03-07T05:26:30.023Z,20.00
2023-03-07T05:28:58.192Z,21.10
2023-03-07T05:31:26.581Z,22.35
2023-03-07T05:33:54.712Z,21.35
2023-03-07T05:36:23.173Z,22.15
2023-03-07T05:38:53.759Z,22.23
2023-03-07T05:41:47.061Z,19.45
2023-03-07T05:44:15.122Z,18.45
2023-03-07T05:46:43.124Z,18.02
2023-03-07T05:49:12.555Z,17.85
2023-03-07T05:51:41.168Z,17.10
2023-03-07T05:54:09.642Z,15.50
2023-03-07T05:56:38.200Z,15.30
2023-03-07T05:59:33.053Z,20.38
2023-03-07T06:02:01.078Z,27.83
2023-03-07T06:04:29.126Z,25.58
2023-03-07T06:06:57.757Z,25.85
2023-03-07T06:09:26.128Z,19.42
2023-03-07T06:11:56.089Z,22.42
2023-03-07T06:14:24.330Z,23.73
2023-03-07T06:16:52.379Z,20.60
2023-03-07T06:19:20.842Z,48.60
2023-03-07T06:21:50.035Z,16.63
2023-03-07T06:24:18.129Z,13.57
2023-03-07T06:26:46.200Z,12.65
2023-03-07T06:29:14.633Z,13.50
2023-03-07T06:31:42.842Z,15.95
2023-03-07T06:34:11.677Z,17.73
2023-03-07T06:36:40.717Z,14.75
2023-03-07T06:39:08.847Z,15.70
2023-03-07T06:41:37.245Z,16.05
2023-03-07T06:44:06.469Z,15.88
2023-03-07T06:46:34.971Z,16.15
2023-03-07T06:49:08.636Z,16.38
2023-03-07T06:51:40.249Z,19.88
2023-03-07T06:54:09.060Z,17.38
2023-03-07T06:56:37.341Z,15.25
2023-03-07T06:59:05.594Z,20.88
2023-03-07T07:01:35.710Z,33.13
2023-03-07T07:04:05.031Z,29.70
2023-03-07T07:06:33.129Z,24.38
2023-03-07T07:09:01.751Z,20.83
2023-03-07T07:11:34.996Z,33.60
2023-03-07T07:14:04.559Z,20.95
2023-03-07T07:16:34.010Z,18.77
2023-03-07T07:19:02.144Z,18.02
2023-03-07T07:21:30.198Z,18.70
2023-03-07T07:23:58.410Z,22.42
2023-03-07T07:26:27.148Z,24.23
2023-03-07T07:28:55.239Z,26.55
2023-03-07T07:31:23.330Z,24.40
2023-03-07T07:33:51.730Z,23.50
2023-03-07T07:36:22.842Z,19.77
2023-03-07T07:38:52.095Z,20.23
2023-03-07T07:41:20.357Z,20.63
2023-03-07T07:43:53.711Z,20.95
2023-03-07T07:46:33.795Z,18.42
2023-03-07T07:49:01.972Z,18.17
2023-03-07T07:51:30.100Z,21.30
2023-03-07T07:53:58.312Z,23.35
2023-03-07T07:56:26.538Z,21.52
2023-03-07T07:58:54.560Z,20.10
2023-03-07T08:01:25.253Z,21.40
2023-03-07T08:03:53.158Z,21.98
2023-03-07T08:06:23.732Z,21.00
2023-03-07T08:08:52.094Z,19.15
2023-03-07T08:11:20.950Z,21.25
2023-03-07T08:13:49.746Z,21.17
2023-03-07T08:16:21.090Z,14.13
2023-03-07T08:18:51.431Z,16.38
2023-03-07T08:21:19.599Z,14.93
2023-03-07T08:23:47.906Z,16.85
2023-03-07T08:26:17.696Z,16.30
2023-03-07T08:28:46.734Z,17.33
2023-03-07T08:31:17.503Z,15.93
2023-03-07T08:33:48.372Z,14.70
2023-03-07T08:36:16.957Z,12.98
2023-03-07T08:38:51.826Z,13.57
2023-03-07T08:41:22.570Z,11.48
2023-03-07T08:43:51.254Z,9.45
2023-03-07T08:46:19.327Z,9.52
2023-03-07T08:48:47.674Z,10.13
2023-03-07T08:51:17.927Z,9.55
2023-03-07T08:53:49.310Z,8.60
2023-03-07T08:56:19.113Z,6.80
2023-03-07T08:58:47.352Z,5.53
2023-03-07T09:01:15.442Z,6.28
2023-03-07T09:03:43.833Z,7.00
2023-03-07T09:06:20.463Z,5.55
2023-03-07T09:08:49.392Z,6.05
2023-03-07T09:11:18.755Z,6.60
2023-03-07T09:13:52.542Z,5.75
2023-03-07T09:16:22.165Z,5.95
2023-03-07T09:18:50.932Z,5.25
2023-03-07T09:21:19.630Z,5.45
2023-03-07T09:23:47.657Z,6.45
2023-03-07T09:26:16.326Z,6.90
2023-03-07T09:28:44.255Z,5.40
2023-03-07T09:31:15.278Z,4.55
2023-03-07T09:33:46.189Z,5.40
2023-03-07T09:36:15.964Z,5.40
2023-03-07T09:38:44.416Z,5.35
2023-03-07T09:42:00.639Z,4.63
2023-03-07T09:44:56.562Z,5.72
2023-03-07T09:48:04.967Z,5.07
2023-03-07T09:51:14.254Z,4.53
2023-03-07T09:53:46.389Z,3.75
2023-03-07T09:56:24.867Z,4.93
2023-03-07T09:59:08.492Z,4.38
2023-03-07T10:01:44.493Z,6.28
2023-03-07T10:04:21.985Z,5.07
2023-03-07T10:06:57.415Z,5.15
2023-03-07T10:09:26.728Z,5.57
2023-03-07T10:12:39.030Z,6.85
2023-03-07T10:15:33.224Z,5.07
2023-03-07T10:18:10.691Z,4.40
2023-03-07T10:21:01.124Z,4.30
2023-03-07T10:23:56.516Z,3.50
2023-03-07T10:26:35.161Z,3.78
2023-03-07T10:29:16.675Z,4.13
2023-03-07T10:32:25.317Z,4.07
2023-03-07T10:35:13.873Z,4.35
2023-03-07T10:37:52.188Z,3.60
2023-03-07T10:40:35.171Z,3.15
2023-03-07T10:43:04.965Z,3.00
2023-03-07T10:45:34.872Z,3.83
2023-03-07T10:48:15.773Z,7.38
2023-03-07T10:51:12.490Z,4.78
2023-03-07T10:53:40.802Z,4.00
2023-03-07T10:56:14.353Z,4.90
2023-03-07T10:59:06.098Z,4.18
2023-03-07T11:01:34.735Z,3.85
2023-03-07T11:04:07.417Z,5.65
2023-03-07T11:06:39.604Z,4.68
2023-03-07T11:09:23.368Z,3.40
2023-03-07T11:11:57.809Z,4.43
2023-03-07T11:14:29.515Z,4.68
2023-03-07T11:17:02.272Z,5.40
2023-03-07T11:19:36.458Z,4.35
2023-03-07T11:22:25.081Z,4.55
2023-03-07T11:25:19.346Z,4.80
2023-03-07T11:27:50.429Z,5.40
2023-03-07T11:30:30.097Z,4.55
2023-03-07T11:33:08.573Z,4.88
2023-03-07T11:35:55.533Z,6.38
2023-03-07T11:38:49.714Z,4.47
2023-03-07T11:41:26.423Z,4.03
2023-03-07T11:44:15.529Z,4.07
2023-03-07T11:47:07.371Z,4.68
2023-03-07T11:49:47.154Z,4.70
2023-03-07T11:52:26.928Z,5.25
2023-03-07T11:55:25.109Z,4.25
2023-03-07T11:57:53.015Z,3.47
2023-03-07T12:00:30.961Z,4.15
2023-03-07T12:03:17.163Z,4.25
2023-03-07T12:06:08.389Z,4.30
2023-03-07T12:09:00.107Z,5.53
2023-03-07T12:12:06.943Z,5.22
2023-03-07T12:14:59.995Z,4.43
2023-03-07T12:17:49.218Z,3.70
2023-03-07T12:20:28.856Z,3.65
2023-03-07T12:23:18.601Z,4.15
2023-03-07T12:25:51.907Z,4.15
2023-03-07T12:28:25.305Z,5.97
2023-03-07T12:31:09.113Z,3.78
2023-03-07T12:34:10.708Z,7.35
2023-03-07T12:37:03.500Z,5.57
2023-03-07T12:39:52.135Z,4.57
2023-03-07T12:42:32.081Z,5.22
2023-03-07T12:45:24.092Z,5.40
2023-03-07T12:48:30.428Z,5.00
2023-03-07T12:51:07.181Z,5.53
2023-03-07T12:53:55.129Z,5.40
2023-03-07T12:57:00.537Z,4.70
2023-03-07T12:59:29.957Z,4.68
2023-03-07T13:02:12.175Z,11.55
2023-03-07T13:04:42.827Z,13.70
2023-03-07T13:07:22.713Z,6.82
2023-03-07T13:09:54.029Z,5.38
2023-03-07T13:12:31.256Z,6.20
2023-03-07T13:15:00.612Z,4.70
2023-03-07T13:17:31.751Z,5.70
2023-03-07T13:20:28.413Z,5.00
2023-03-07T13:22:59.886Z,4.30
2023-03-07T13:25:44.974Z,5.90
2023-03-07T13:28:37.954Z,4.57
2023-03-07T13:31:21.328Z,5.63
2023-03-07T13:33:49.249Z,7.22
2023-03-07T13:36:35.996Z,5.80
2023-03-07T13:39:24.566Z,4.82
2023-03-07T13:41:52.520Z,5.65
2023-03-07T13:44:39.916Z,4.32
2023-03-07T13:47:43.319Z,5.30
2023-03-07T13:50:49.637Z,4.43
2023-03-07T13:53:22.874Z,6.07
2023-03-07T13:59:00.950Z,5.60
2023-03-07T14:01:46.865Z,4.88
2023-03-07T14:04:41.567Z,6.82
2023-03-07T14:07:37.488Z,5.82
2023-03-07T14:10:22.730Z,5.55
2023-03-07T14:13:10.438Z,7.10
2023-03-07T14:16:10.419Z,7.30
2023-03-07T14:18:47.856Z,6.55
2023-03-07T14:21:50.922Z,7.30
2023-03-07T14:25:10.503Z,5.50
2023-03-07T14:28:19.932Z,5.93
2023-03-07T14:30:57.546Z,5.75
2023-03-07T14:33:36.235Z,5.22
2023-03-07T14:36:19.197Z,7.22
2023-03-07T14:38:48.890Z,5.32
2023-03-07T14:41:20.328Z,5.25
2023-03-07T14:44:25.865Z,6.18
2023-03-07T14:47:37.656Z,5.53
2023-03-07T14:50:25.555Z,5.65
2023-03-07T14:53:36.899Z,5.15
2023-03-07T14:56:08.772Z,6.35
2023-03-07T14:59:03.782Z,5.70
2023-03-07T15:01:43.234Z,6.38
2023-03-07T15:04:29.775Z,5.35
2023-03-07T15:07:04.706Z,5.88
2023-03-07T15:09:34.530Z,6.43
2023-03-07T15:12:21.365Z,7.07
2023-03-07T15:15:03.541Z,6.72
2023-03-07T15:17:46.778Z,6.35
2023-03-07T15:20:22.086Z,8.18
2023-03-07T15:22:51.350Z,8.15
2023-03-07T15:25:24.478Z,8.88
2023-03-07T15:28:04.440Z,26.23
2023-03-07T15:30:35.360Z,8.65
2023-03-07T15:33:21.660Z,9.38
2023-03-07T15:36:13.958Z,11.50
2023-03-07T15:38:51.210Z,8.13
2023-03-07T15:42:10.115Z,8.70
2023-03-07T15:44:38.717Z,8.98
2023-03-07T15:47:17.981Z,8.70
2023-03-07T15:49:56.121Z,9.77
2023-03-07T15:52:41.874Z,7.63
2023-03-07T15:55:25.687Z,8.60
2023-03-07T15:58:03.188Z,9.13
2023-03-07T16:00:40.475Z,5.93
2023-03-07T16:03:25.917Z,7.05
2023-03-07T16:05:54.931Z,9.05
2023-03-07T16:08:23.606Z,7.60
2023-03-07T16:11:03.951Z,7.82
2023-03-07T16:13:39.570Z,7.97
2023-03-07T16:16:12.992Z,8.70
2023-03-07T16:18:42.534Z,7.75
2023-03-07T16:21:21.803Z,7.97
2023-03-07T16:23:51.341Z,9.43
2023-03-07T16:26:22.083Z,10.20
2023-03-07T16:28:56.065Z,9.07
2023-03-07T16:31:24.109Z,12.73
2023-03-07T16:33:52.394Z,12.13
2023-03-07T16:36:24.319Z,11.35
2023-03-07T16:38:55.546Z,9.35
2023-03-07T16:41:23.545Z,10.18
2023-03-07T16:43:59.625Z,11.13
2023-03-07T16:46:32.419Z,10.20
2023-03-07T16:49:00.553Z,8.93
2023-03-07T16:51:31.217Z,13.82
2023-03-07T16:53:59.942Z,9.45
2023-03-07T16:56:42.098Z,10.48
2023-03-07T16:59:15.408Z,16.13
2023-03-07T17:01:49.922Z,10.18
2023-03-07T17:04:18.461Z,9.63
2023-03-07T17:06:50.594Z,9.63
2023-03-07T17:09:25.954Z,9.60
2023-03-07T17:11:54.051Z,10.13
2023-03-07T17:14:22.512Z,9.05
2023-03-07T17:16:51.120Z,10.27
2023-03-07T17:19:32.942Z,12.55
2023-03-07T17:22:02.518Z,10.82
2023-03-07T17:24:31.338Z,11.43
2023-03-07T17:27:03.768Z,10.55
2023-03-07T17:29:36.050Z,11.63
2023-03-07T17:32:04.415Z,12.45
2023-03-07T17:34:37.601Z,13.02
2023-03-07T17:37:06.336Z,13.30
2023-03-07T17:39:35.378Z,13.15
2023-03-07T17:42:04.614Z,14.88
2023-03-07T17:44:33.905Z,14.75
2023-03-07T17:47:02.922Z,14.10
2023-03-07T17:49:36.075Z,12.48
2023-03-07T17:52:06.445Z,13.57
2023-03-07T17:54:35.197Z,13.30
2023-03-07T17:57:04.120Z,12.90
2023-03-07T17:59:33.006Z,12.32
2023-03-07T18:02:01.770Z,13.43
2023-03-07T18:04:31.491Z,13.90
2023-03-07T18:07:00.603Z,13.38
2023-03-07T18:09:29.066Z,13.63
2023-03-07T18:11:57.866Z,13.93
2023-03-07T18:14:26.835Z,14.07
2023-03-07T18:16:54.928Z,14.50
2023-03-07T18:19:27.117Z,15.23
2023-03-07T18:21:55.729Z,15.35
2023-03-07T18:24:27.001Z,16.20
2023-03-07T18:26:56.066Z,15.90
2023-03-07T18:29:24.995Z,16.67
2023-03-07T18:31:53.714Z,16.60
2023-03-07T18:34:23.895Z,18.83
2023-03-07T18:36:53.104Z,17.05
2023-03-07T18:39:23.348Z,17.42
2023-03-07T18:41:51.662Z,16.40
2023-03-07T18:44:19.886Z,18.45
2023-03-07T18:46:48.932Z,19.33
2023-03-07T18:49:17.931Z,17.50
2023-03-07T18:51:46.224Z,17.45
2023-03-07T18:54:14.997Z,17.67
2023-03-07T18:56:46.975Z,16.27
2023-03-07T18:59:17.465Z,16.83
2023-03-07T19:01:50.242Z,16.25
2023-03-07T19:04:19.024Z,16.73
2023-03-07T19:06:48.323Z,16.20
2023-03-07T19:09:19.796Z,18.58
2023-03-07T19:11:48.826Z,17.38
2023-03-07T19:14:17.085Z,17.20
2023-03-07T19:16:45.341Z,15.85
2023-03-07T19:19:13.433Z,16.35
2023-03-07T19:21:42.117Z,17.13
2023-03-07T19:24:12.212Z,23.45
2023-03-07T19:26:42.847Z,18.42
2023-03-07T19:29:12.976Z,24.45
2023-03-07T19:31:44.050Z,60.50
2023-03-07T19:34:13.256Z,39.75
2023-03-07T19:36:41.864Z,40.40
2023-03-07T19:39:15.053Z,37.35
2023-03-07T19:41:50.268Z,43.92
2023-03-07T19:44:18.759Z,49.95
2023-03-07T19:46:47.340Z,40.63
2023-03-07T19:49:16.623Z,47.97
2023-03-07T19:51:44.627Z,41.88
2023-03-07T19:54:14.545Z,50.65
2023-03-07T19:56:45.621Z,55.88
2023-03-07T19:59:13.752Z,66.80
2023-03-07T20:01:42.135Z,71.90
2023-03-07T20:04:13.446Z,65.32
2023-03-07T20:06:42.517Z,65.72
2023-03-07T20:09:12.976Z,55.50
2023-03-07T20:11:45.514Z,54.33
2023-03-07T20:14:13.903Z,37.08
2023-03-07T20:16:41.872Z,40.40
2023-03-07T20:19:10.831Z,43.50
2023-03-07T20:21:40.496Z,44.25
2023-03-07T20:24:08.830Z,60.38
2023-03-07T20:26:38.345Z,58.67
2023-03-07T20:29:08.685Z,63.47
2023-03-07T20:31:39.336Z,64.28
2023-03-07T20:34:08.904Z,64.93
2023-03-07T20:36:38.628Z,62.15
2023-03-07T20:39:09.118Z,61.63
2023-03-07T20:41:37.249Z,61.65
2023-03-07T20:44:07.747Z,61.45
2023-03-07T20:46:37.829Z,63.38
2023-03-07T20:49:06.323Z,69.20
2023-03-07T20:51:36.474Z,66.35
2023-03-07T20:54:12.432Z,69.40
2023-03-07T20:56:41.553Z,67.30
2023-03-07T20:59:16.708Z,70.93
2023-03-07T21:01:45.053Z,64.55
2023-03-07T21:04:17.685Z,66.20
2023-03-07T21:06:47.444Z,69.88
2023-03-07T21:09:17.086Z,66.57
2023-03-07T21:11:49.045Z,66.53
2023-03-07T21:14:19.394Z,64.75
2023-03-07T21:16:47.570Z,66.10
2023-03-07T21:19:16.477Z,68.78
2023-03-07T21:21:45.647Z,57.28
2023-03-07T21:24:15.745Z,51.75
2023-03-07T21:26:44.000Z,52.40
2023-03-07T21:29:13.870Z,51.05
2023-03-07T21:31:42.049Z,26.85
2023-03-07T21:34:13.756Z,28.92
2023-03-07T21:36:42.092Z,27.65
2023-03-07T21:39:11.474Z,30.58
2023-03-07T21:41:40.072Z,30.48
2023-03-07T21:44:09.808Z,33.17
2023-03-07T21:46:38.079Z,30.83
2023-03-07T21:49:06.930Z,25.80
2023-03-07T21:51:35.356Z,27.05
2023-03-07T21:54:03.408Z,28.55
2023-03-07T21:56:31.800Z,30.63
2023-03-07T21:58:59.722Z,30.67
2023-03-07T22:01:29.203Z,48.53
2023-03-07T22:03:59.334Z,36.83
2023-03-07T22:06:28.729Z,38.45
2023-03-07T22:09:00.155Z,42.60
2023-03-07T22:11:28.341Z,43.53
2023-03-07T22:13:56.430Z,39.78
2023-03-07T22:16:24.700Z,40.95
2023-03-07T22:18:55.124Z,45.10
2023-03-07T22:21:26.275Z,44.60
2023-03-07T22:24:00.792Z,45.70
2023-03-07T22:26:30.667Z,42.95
2023-03-07T22:28:59.264Z,52.38
2023-03-07T22:31:28.329Z,47.17
2023-03-07T22:33:57.867Z,47.63
2023-03-07T22:36:26.206Z,45.70
2023-03-07T22:38:55.849Z,49.00
2023-03-07T22:41:24.906Z,48.28
2023-03-07T22:43:52.899Z,46.95
2023-03-07T22:46:21.165Z,45.08
2023-03-07T22:48:52.981Z,43.90
2023-03-07T22:51:22.840Z,38.47
2023-03-07T22:53:50.925Z,41.38
2023-03-07T22:56:28.165Z,41.55
2023-03-07T22:58:56.521Z,43.60
2023-03-07T23:01:27.276Z,41.92
2023-03-07T23:03:57.649Z,34.08
2023-03-07T23:06:29.084Z,37.55
2023-03-07T23:08:59.666Z,39.42
2023-03-07T23:11:30.505Z,39.45
2023-03-07T23:13:58.803Z,43.67
2023-03-07T23:16:29.688Z,45.28
2023-03-07T23:18:59.341Z,43.78
2023-03-07T23:21:30.116Z,40.95
2023-03-07T23:23:59.331Z,42.90
2023-03-07T23:26:33.269Z,44.55
2023-03-07T23:29:01.806Z,40.47
2023-03-07T23:31:32.941Z,42.83
2023-03-07T23:34:03.924Z,38.00
2023-03-07T23:36:33.727Z,30.08
2023-03-07T23:39:02.197Z,27.67
2023-03-07T23:41:30.188Z,26.60
2023-03-07T23:43:59.926Z,30.05
2023-03-07T23:46:28.912Z,31.35
2023-03-07T23:48:57.080Z,31.42
2023-03-07T23:51:25.433Z,30.15
2023-03-07T23:53:53.852Z,31.08
2023-03-07T23:56:22.325Z,27.80
2023-03-07T23:58:51.696Z,29.35
